Time;durP1;ratioP1;P1;durP2;ratioP2;P2;SDS_P1;SDS_P2;PMS_P1;PMS_P2;Temp;Humidity;BMP_temperature;BMP_pressure;BME280_temperature;BME280_humidity;BME280_pressure;Samples;Min_cycle;Max_cycle;Signal;HPM_P1;HPM_P2
2023/08/01 00:02:22;;;;;;;4.50;1.50;;;17.80;99.90;;;;;;5027975;28;20025;-79
2023/08/01 00:04:47;;;;;;;2.70;1.35;;;17.70;99.90;;;;;;5024015;28;20029;-78
2023/08/01 00:07:15;;;;;;;2.65;1.40;;;17.70;99.90;;;;;;5029044;28;20018;-78
2023/08/01 00:09:40;;;;;;;1.50;1.40;;;17.80;99.90;;;;;;5021676;28;20033;-79
2023/08/01 00:12:06;;;;;;;1.48;1.38;;;17.80;99.90;;;;;;5027758;28;20029;-85
2023/08/01 00:14:32;;;;;;;1.40;1.30;;;17.90;99.90;;;;;;5027568;28;20048;-85
2023/08/01 00:16:58;;;;;;;2.85;1.20;;;17.80;99.90;;;;;;5025108;28;20016;-84
2023/08/01 00:19:23;;;;;;;2.92;1.65;;;17.70;99.90;;;;;;5027804;28;20401;-85
2023/08/01 00:21:49;;;;;;;3.25;1.13;;;17.80;99.90;;;;;;5027512;28;20022;-86
2023/08/01 00:24:15;;;;;;;1.40;1.30;;;17.90;99.90;;;;;;5027073;28;20036;-79
2023/08/01 00:26:40;;;;;;;3.13;1.60;;;17.90;99.90;;;;;;5026838;28;20176;-84
2023/08/01 00:29:06;;;;;;;3.45;1.90;;;17.90;99.90;;;;;;5024056;28;20025;-85
2023/08/01 00:31:32;;;;;;;5.30;1.88;;;17.70;99.90;;;;;;5026990;28;20466;-85
2023/08/01 00:33:57;;;;;;;1.95;1.85;;;17.70;99.90;;;;;;5025874;28;20359;-85
2023/08/01 00:36:23;;;;;;;1.88;1.73;;;17.70;99.90;;;;;;5029785;28;20068;-85
2023/08/01 00:38:48;;;;;;;2.03;1.73;;;17.80;99.90;;;;;;5026932;28;20029;-78
2023/08/01 00:41:14;;;;;;;2.15;1.92;;;17.80;99.90;;;;;;5025769;28;20129;-85
2023/08/01 00:43:40;;;;;;;2.13;1.80;;;17.90;99.90;;;;;;5034578;28;20124;-78
2023/08/01 00:46:07;;;;;;;2.30;2.00;;;17.80;99.90;;;;;;5029023;28;20060;-85
2023/08/01 00:48:33;;;;;;;4.40;2.22;;;17.80;99.90;;;;;;5028024;28;20022;-84
2023/08/01 00:51:04;;;;;;;4.30;2.25;;;17.70;99.90;;;;;;5150104;22;20189;-78
2023/08/01 00:53:31;;;;;;;2.58;2.10;;;17.70;99.90;;;;;;5039870;28;20026;-78
2023/08/01 00:56:00;;;;;;;10.88;2.35;;;17.80;99.90;;;;;;5020059;28;20083;-78
2023/08/01 00:58:25;;;;;;;3.08;2.58;;;17.70;99.90;;;;;;5023907;28;20477;-78
2023/08/01 01:00:51;;;;;;;4.22;2.85;;;17.70;99.90;;;;;;5023250;28;20044;-78
2023/08/01 01:03:18;;;;;;;7.55;2.42;;;17.70;99.90;;;;;;5020852;28;20109;-85
2023/08/01 01:05:53;;;;;;;4.63;2.60;;;17.70;99.90;;;;;;5018609;28;20056;-83
2023/08/01 01:08:20;;;;;;;2.78;2.55;;;17.70;99.90;;;;;;5024536;28;20083;-78
2023/08/01 01:10:45;;;;;;;7.60;3.47;;;17.80;99.90;;;;;;5024367;28;20034;-78
2023/08/01 01:13:11;;;;;;;3.55;2.92;;;17.80;99.90;;;;;;5024725;28;20072;-78
2023/08/01 01:15:36;;;;;;;3.50;2.80;;;17.90;99.90;;;;;;5023925;28;20025;-78
2023/08/01 01:18:02;;;;;;;6.75;3.05;;;17.90;99.90;;;;;;5024610;28;20103;-78
2023/08/01 01:20:34;;;;;;;4.82;3.25;;;17.90;99.90;;;;;;5025025;28;20059;-84
2023/08/01 01:23:01;;;;;;;5.20;3.40;;;17.80;99.90;;;;;;5015260;28;20029;-78
2023/08/01 01:25:27;;;;;;;3.97;3.40;;;17.90;99.90;;;;;;5021837;28;20030;-79
2023/08/01 01:27:54;;;;;;;7.38;4.03;;;17.80;99.90;;;;;;5022376;28;20734;-78
2023/08/01 01:30:20;;;;;;;4.85;3.72;;;17.70;99.90;;;;;;5020333;28;20622;-78
2023/08/01 01:32:48;;;;;;;7.05;3.97;;;17.80;99.90;;;;;;5024148;28;20056;-78
2023/08/01 01:35:14;;;;;;;5.97;4.72;;;17.80;99.90;;;;;;5024780;28;20030;-78
2023/08/01 01:40:19;;;;;;;7.57;4.35;;;17.90;99.90;;;;;;5044570;23;20435;-82
2023/08/01 01:42:45;;;;;;;7.22;5.72;;;17.90;99.90;;;;;;4977776;28;20022;-83
2023/08/01 01:45:11;;;;;;;9.05;5.68;;;17.80;99.90;;;;;;4978320;28;20149;-84
2023/08/01 01:47:36;;;;;;;8.15;5.82;;;17.80;99.90;;;;;;4990924;28;20144;-84
2023/08/01 01:50:03;;;;;;;7.45;5.45;;;17.80;99.90;;;;;;4974765;28;20081;-84
2023/08/01 01:52:28;;;;;;;10.20;5.95;;;17.80;99.90;;;;;;4974713;28;20015;-84
2023/08/01 01:54:54;;;;;;;8.38;5.80;;;17.70;99.90;;;;;;4976993;28;20044;-83
2023/08/01 01:57:19;;;;;;;13.40;6.68;;;17.70;99.90;;;;;;4984284;28;20033;-85
2023/08/01 01:59:45;;;;;;;10.98;6.82;;;17.70;99.90;;;;;;4975305;28;20408;-84
2023/08/01 02:02:11;;;;;;;10.73;6.97;;;17.70;99.90;;;;;;4974312;28;20037;-83
2023/08/01 02:04:37;;;;;;;10.73;7.40;;;17.60;99.90;;;;;;4975368;28;20014;-83
2023/08/01 02:07:05;;;;;;;12.98;6.70;;;17.70;99.90;;;;;;4976973;28;20150;-82
2023/08/01 02:09:31;;;;;;;15.68;8.40;;;17.70;99.90;;;;;;5135048;22;20718;-84
2023/08/01 02:11:56;;;;;;;12.35;8.15;;;17.60;99.90;;;;;;4996836;28;20872;-84
2023/08/01 02:14:22;;;;;;;10.07;7.72;;;17.60;99.90;;;;;;4998051;28;20034;-83
2023/08/01 02:16:47;;;;;;;12.95;8.00;;;17.70;99.90;;;;;;4998940;28;20080;-83
2023/08/01 02:19:15;;;;;;;14.63;8.95;;;17.70;99.90;;;;;;4994749;28;20049;-84
2023/08/01 02:21:41;;;;;;;13.75;8.30;;;17.70;99.90;;;;;;4999843;28;21039;-78
2023/08/01 02:24:06;;;;;;;12.88;8.70;;;17.70;99.90;;;;;;4993816;28;20503;-78
2023/08/01 02:26:32;;;;;;;12.13;8.10;;;17.60;99.90;;;;;;4993235;28;20074;-78
2023/08/01 02:28:57;;;;;;;12.00;8.13;;;17.70;99.90;;;;;;4994622;28;20037;-78
2023/08/01 02:31:23;;;;;;;13.00;8.15;;;17.70;99.90;;;;;;4994042;28;20105;-78
2023/08/01 02:33:49;;;;;;;12.70;8.02;;;17.70;99.90;;;;;;5006121;28;20034;-78
2023/08/01 02:36:15;;;;;;;10.98;6.95;;;17.70;99.90;;;;;;4996468;28;20026;-78
2023/08/01 02:38:40;;;;;;;13.77;8.48;;;17.60;99.90;;;;;;4995946;28;20033;-84
2023/08/01 02:41:08;;;;;;;11.68;7.18;;;17.60;99.90;;;;;;4995142;28;20711;-84
2023/08/01 02:43:36;;;;;;;13.25;8.18;;;17.60;99.90;;;;;;4998660;28;20529;-83
2023/08/01 02:46:05;;;;;;;17.33;9.13;;;17.60;99.90;;;;;;5009839;28;20057;-83
2023/08/01 02:48:32;;;;;;;14.88;9.40;;;17.60;99.90;;;;;;4996482;28;20117;-84
2023/08/01 02:50:57;;;;;;;15.35;9.02;;;17.60;99.90;;;;;;4993979;28;20027;-83
2023/08/01 02:53:24;;;;;;;13.93;8.98;;;17.60;99.90;;;;;;5007086;28;20034;-83
2023/08/01 02:55:49;;;;;;;13.15;8.40;;;17.60;99.90;;;;;;5003539;28;20090;-83
2023/08/01 02:58:15;;;;;;;13.45;8.02;;;17.50;99.90;;;;;;4996501;28;20513;-83
2023/08/01 03:00:41;;;;;;;12.40;7.55;;;17.50;99.90;;;;;;4995046;28;20045;-83
2023/08/01 03:03:07;;;;;;;9.90;5.57;;;17.50;99.90;;;;;;4995124;28;20137;-83
2023/08/01 03:05:35;;;;;;;9.43;5.45;;;17.60;99.90;;;;;;4997145;28;20079;-83
2023/08/01 03:08:00;;;;;;;9.13;5.30;;;17.50;99.90;;;;;;4995701;28;20022;-84
2023/08/01 03:10:26;;;;;;;9.35;6.35;;;17.50;99.90;;;;;;4998208;28;20064;-77
2023/08/01 03:12:52;;;;;;;13.40;5.90;;;17.50;99.90;;;;;;5000333;28;20059;-78
2023/08/01 03:15:17;;;;;;;13.88;7.10;;;17.50;99.90;;;;;;4991737;28;20022;-78
2023/08/01 03:17:43;;;;;;;16.13;8.45;;;17.40;99.90;;;;;;4993075;28;20387;-78
2023/08/01 03:20:10;;;;;;;11.55;8.13;;;17.40;99.90;;;;;;4993677;28;20034;-78
2023/08/01 03:22:39;;;;;;;15.90;8.43;;;17.20;99.90;;;;;;4992453;28;20092;-78
2023/08/01 03:25:07;;;;;;;17.10;8.32;;;17.10;99.90;;;;;;4999356;28;20435;-77
2023/08/01 03:27:35;;;;;;;13.57;8.40;;;17.20;99.90;;;;;;5002648;28;20068;-78
2023/08/01 03:30:02;;;;;;;15.50;7.57;;;17.20;99.90;;;;;;5000913;28;20116;-78
2023/08/01 03:32:28;;;;;;;13.73;8.02;;;17.20;99.90;;;;;;5001869;28;20141;-78
2023/08/01 03:34:53;;;;;;;14.95;8.52;;;17.20;99.90;;;;;;5002008;28;20498;-78
2023/08/01 03:37:19;;;;;;;16.80;8.82;;;17.10;99.90;;;;;;5000037;28;20087;-78
2023/08/01 03:39:47;;;;;;;21.80;10.10;;;17.00;99.90;;;;;;5001242;28;20125;-77
2023/08/01 03:42:12;;;;;;;18.83;9.57;;;17.10;99.90;;;;;;5000362;28;20045;-78
2023/08/01 03:44:38;;;;;;;24.80;10.57;;;17.10;99.90;;;;;;5004982;28;20520;-78
2023/08/01 03:47:04;;;;;;;20.95;10.10;;;17.10;99.90;;;;;;5017574;28;20049;-78
2023/08/01 03:49:29;;;;;;;21.13;10.45;;;17.10;99.90;;;;;;4999331;28;20030;-78
2023/08/01 03:51:55;;;;;;;20.98;9.88;;;17.20;99.90;;;;;;4999104;28;20018;-77
2023/08/01 03:54:20;;;;;;;23.10;9.57;;;17.10;99.90;;;;;;5004135;28;20018;-83
2023/08/01 03:56:46;;;;;;;16.92;9.70;;;17.10;99.90;;;;;;4991185;28;20037;-80
2023/08/01 03:59:13;;;;;;;21.98;9.15;;;17.10;99.90;;;;;;5001052;28;20033;-82
2023/08/01 04:01:42;;;;;;;23.65;10.27;;;17.00;99.90;;;;;;4999448;28;20025;-83
2023/08/01 04:04:08;;;;;;;18.33;9.35;;;16.90;99.90;;;;;;5003269;28;20025;-83
2023/08/01 04:06:34;;;;;;;19.42;9.02;;;16.90;99.90;;;;;;5005436;28;20025;-83
2023/08/01 04:09:00;;;;;;;20.27;9.70;;;16.90;99.90;;;;;;5002844;28;20030;-83
2023/08/01 04:11:26;;;;;;;19.65;9.68;;;16.90;99.90;;;;;;5002267;28;20378;-83
2023/08/01 04:13:52;;;;;;;18.40;8.93;;;16.80;99.90;;;;;;5006017;28;20082;-82
2023/08/01 04:16:17;;;;;;;21.75;9.07;;;16.80;99.90;;;;;;5001813;28;20022;-84
2023/08/01 04:18:43;;;;;;;22.52;9.38;;;16.90;99.90;;;;;;5002424;28;20541;-84
2023/08/01 04:21:09;;;;;;;20.42;8.90;;;16.80;99.90;;;;;;4998969;28;20229;-84
2023/08/01 04:23:34;;;;;;;15.90;9.45;;;16.80;99.90;;;;;;5002076;28;20398;-83
2023/08/01 04:26:00;;;;;;;18.13;9.55;;;16.70;99.90;;;;;;4997142;28;20050;-84
2023/08/01 04:28:26;;;;;;;15.40;8.82;;;16.70;99.90;;;;;;5002601;28;20029;-83
2023/08/01 04:30:52;;;;;;;22.33;9.70;;;16.80;99.90;;;;;;5003015;28;20084;-83
2023/08/01 04:33:18;;;;;;;23.70;9.25;;;16.70;99.90;;;;;;5011286;28;20057;-84
2023/08/01 04:35:43;;;;;;;20.75;10.13;;;16.70;99.90;;;;;;4997297;28;20054;-84
2023/08/01 04:38:11;;;;;;;25.88;10.00;;;16.80;99.90;;;;;;5003316;28;20121;-83
2023/08/01 04:40:37;;;;;;;21.50;9.32;;;16.70;99.90;;;;;;4999508;28;20319;-83
2023/08/01 04:43:02;;;;;;;17.70;9.07;;;16.80;99.90;;;;;;5002120;28;20030;-84
2023/08/01 04:45:28;;;;;;;24.05;9.77;;;16.80;99.90;;;;;;5001039;28;20034;-83
2023/08/01 04:47:54;;;;;;;23.30;9.57;;;16.80;99.90;;;;;;4997618;28;20026;-83
2023/08/01 04:50:24;;;;;;;21.67;9.23;;;16.80;99.90;;;;;;4997800;28;20026;-85
2023/08/01 04:52:50;;;;;;;19.65;9.45;;;16.80;99.90;;;;;;5002579;28;20026;-83
2023/08/01 04:55:15;;;;;;;24.73;10.32;;;16.90;99.90;;;;;;5006765;28;20512;-83
2023/08/01 04:57:41;;;;;;;22.65;9.32;;;16.80;99.90;;;;;;5010992;28;20057;-84
2023/08/01 05:00:07;;;;;;;21.08;9.35;;;16.80;99.90;;;;;;5009738;28;20030;-84
2023/08/01 05:02:33;;;;;;;28.73;9.80;;;16.90;99.90;;;;;;4996192;28;20036;-82
2023/08/01 05:04:58;;;;;;;16.58;9.75;;;16.90;99.90;;;;;;4999605;28;20022;-82
2023/08/01 05:07:24;;;;;;;25.40;9.63;;;16.80;99.90;;;;;;5002730;28;20025;-83
2023/08/01 05:09:49;;;;;;;20.25;9.93;;;16.80;99.90;;;;;;4999896;28;20088;-83
2023/08/01 05:12:15;;;;;;;19.73;9.82;;;16.90;99.90;;;;;;5001070;28;20072;-84
2023/08/01 05:14:41;;;;;;;26.30;10.77;;;16.90;99.90;;;;;;5002015;28;20038;-84
2023/08/01 05:17:06;;;;;;;22.23;10.15;;;16.90;99.90;;;;;;5014989;28;20027;-83
2023/08/01 05:19:32;;;;;;;23.13;10.45;;;17.00;99.90;;;;;;5000166;28;20065;-83
2023/08/01 05:21:57;;;;;;;26.23;11.77;;;17.00;99.90;;;;;;5008168;28;20026;-83
2023/08/01 05:24:23;;;;;;;24.20;10.30;;;16.90;99.90;;;;;;5005976;28;20374;-83
2023/08/01 05:26:51;;;;;;;21.00;11.00;;;16.90;99.90;;;;;;4999027;28;20026;-82
2023/08/01 05:29:17;;;;;;;22.27;11.38;;;16.90;99.90;;;;;;4999918;28;20015;-83
2023/08/01 05:31:42;;;;;;;27.13;11.07;;;16.90;99.90;;;;;;5006704;28;20072;-83
2023/08/01 05:34:08;;;;;;;21.75;10.93;;;17.00;99.90;;;;;;4998130;28;20109;-83
2023/08/01 05:36:33;;;;;;;22.33;11.18;;;17.00;99.90;;;;;;5000874;28;20441;-84
2023/08/01 05:39:02;;;;;;;23.48;11.25;;;17.20;99.90;;;;;;5010840;28;20284;-83
2023/08/01 05:41:27;;;;;;;19.88;10.70;;;17.20;99.90;;;;;;5000034;28;20022;-83
2023/08/01 05:43:53;;;;;;;23.92;11.57;;;17.20;99.90;;;;;;5006406;28;20604;-83
2023/08/01 05:46:18;;;;;;;26.30;11.23;;;17.30;99.90;;;;;;4999560;28;20060;-82
2023/08/01 05:48:44;;;;;;;22.02;11.77;;;17.20;99.90;;;;;;5000585;28;20490;-84
2023/08/01 05:51:10;;;;;;;17.30;11.10;;;17.20;99.90;;;;;;5001438;28;20018;-84
2023/08/01 05:53:35;;;;;;;35.03;11.23;;;17.30;99.90;;;;;;5002437;28;20097;-84
2023/08/01 05:56:01;;;;;;;21.60;10.90;;;17.50;99.90;;;;;;5000536;28;20036;-84
2023/08/01 05:58:26;;;;;;;20.25;11.30;;;17.60;99.90;;;;;;4999980;28;20084;-83
2023/08/01 06:00:52;;;;;;;21.77;11.15;;;17.60;99.90;;;;;;5000235;28;20503;-84
2023/08/01 06:03:17;;;;;;;21.33;10.52;;;17.60;99.90;;;;;;4998216;28;20037;-79
2023/08/01 06:05:43;;;;;;;21.25;10.75;;;17.50;99.90;;;;;;4998351;28;20026;-78
2023/08/01 06:08:09;;;;;;;22.50;11.27;;;17.50;99.90;;;;;;5000484;28;20505;-78
2023/08/01 06:10:36;;;;;;;23.63;10.35;;;17.50;99.90;;;;;;4998013;28;20049;-77
2023/08/01 06:13:09;;;;;;;27.83;11.30;;;17.60;99.90;;;;;;4994730;28;20038;-78
2023/08/01 06:15:36;;;;;;;22.10;13.32;;;17.60;99.90;;;;;;4993569;28;20054;-78
2023/08/01 06:18:02;;;;;;;23.30;11.32;;;17.50;99.90;;;;;;4993387;28;20460;-78
2023/08/01 06:20:30;;;;;;;19.77;10.95;;;17.60;99.90;;;;;;5006038;28;20049;-85
2023/08/01 06:22:59;;;;;;;22.58;11.10;;;17.60;99.90;;;;;;5002665;28;20514;-83
2023/08/01 06:25:24;;;;;;;21.88;12.43;;;17.70;99.90;;;;;;4996546;28;20026;-83
2023/08/01 06:27:50;;;;;;;21.13;11.77;;;17.70;99.90;;;;;;4997967;28;20377;-82
2023/08/01 06:30:15;;;;;;;28.17;13.30;;;17.70;99.90;;;;;;4999516;28;20026;-82
2023/08/01 06:32:41;;;;;;;23.27;10.77;;;17.90;99.90;;;;;;4998155;28;20065;-81
2023/08/01 06:35:07;;;;;;;18.40;10.23;;;17.90;99.90;;;;;;4998227;28;20541;-81
2023/08/01 06:37:32;;;;;;;20.25;11.35;;;18.00;99.90;;;;;;4996622;28;20019;-81
2023/08/01 06:39:59;;;;;;;22.52;10.77;;;18.00;99.90;;;;;;4997029;28;20080;-81
2023/08/01 06:42:25;;;;;;;23.35;10.75;;;18.10;99.90;;;;;;4997326;28;20026;-81
2023/08/01 06:44:50;;;;;;;29.25;11.48;;;18.00;99.90;;;;;;4997985;28;20018;-81
2023/08/01 06:47:16;;;;;;;21.30;11.40;;;17.90;99.90;;;;;;4994028;28;20394;-81
2023/08/01 06:49:41;;;;;;;21.15;10.38;;;18.00;99.90;;;;;;4998097;28;20064;-81
2023/08/01 06:52:07;;;;;;;24.08;11.40;;;18.00;99.90;;;;;;5000835;28;20025;-81
2023/08/01 06:54:37;;;;;;;20.45;10.40;;;18.00;99.90;;;;;;4994797;28;20029;-82
2023/08/01 06:57:06;;;;;;;16.95;10.02;;;18.20;99.90;;;;;;5002573;28;20046;-76
2023/08/01 06:59:32;;;;;;;25.13;10.75;;;18.20;99.90;;;;;;4996398;28;20053;-82
2023/08/01 07:01:58;;;;;;;20.02;10.57;;;18.20;99.90;;;;;;5009476;28;20516;-81
2023/08/01 07:04:23;;;;;;;20.20;10.57;;;18.30;99.90;;;;;;5007317;28;20082;-82
2023/08/01 07:06:49;;;;;;;17.98;10.50;;;18.10;99.90;;;;;;5000721;28;20022;-81
2023/08/01 07:09:15;;;;;;;25.85;9.77;;;17.90;99.90;;;;;;5015163;28;20045;-80
2023/08/01 07:11:40;;;;;;;18.27;9.23;;;18.00;99.90;;;;;;5005529;28;20034;-82
2023/08/01 07:14:06;;;;;;;17.95;8.93;;;18.00;99.90;;;;;;5003214;28;20025;-81
2023/08/01 07:16:31;;;;;;;21.98;9.15;;;18.00;99.90;;;;;;4995193;28;20026;-81
2023/08/01 07:19:02;;;;;;;17.02;8.98;;;18.20;99.90;;;;;;4994439;28;20034;-81
2023/08/01 07:21:28;;;;;;;16.45;9.23;;;18.30;99.90;;;;;;4997007;28;20022;-81
2023/08/01 07:23:54;;;;;;;20.75;9.38;;;18.30;99.90;;;;;;4996506;28;20064;-81
2023/08/01 07:26:20;;;;;;;17.70;9.52;;;18.40;99.90;;;;;;4998462;28;20090;-82
2023/08/01 07:28:46;;;;;;;18.42;8.90;;;18.30;99.90;;;;;;4998204;28;20393;-82
2023/08/01 07:31:14;;;;;;;17.13;9.93;;;18.30;99.90;;;;;;4999489;28;20095;-81
2023/08/01 07:33:39;;;;;;;16.85;8.52;;;18.30;99.90;;;;;;4997096;28;20026;-82
2023/08/01 07:36:05;;;;;;;17.90;9.40;;;18.40;99.90;;;;;;4999541;28;20022;-77
2023/08/01 07:38:33;;;;;;;16.02;8.70;;;18.40;99.90;;;;;;4996566;28;20242;-77
2023/08/01 07:41:07;;;;;;;19.25;8.52;;;18.40;99.90;;;;;;4998675;28;20037;-82
2023/08/01 07:43:32;;;;;;;20.48;8.30;;;18.50;99.90;;;;;;5004685;28;20029;-82
2023/08/01 07:45:59;;;;;;;18.38;8.75;;;18.60;99.90;;;;;;4998911;28;20025;-82
2023/08/01 07:48:25;;;;;;;16.30;7.07;;;18.80;99.90;;;;;;4997722;28;20048;-82
2023/08/01 07:50:51;;;;;;;159.40;67.70;;;18.90;99.90;;;;;;4999633;28;20031;-81
2023/08/01 07:53:16;;;;;;;21.13;7.38;;;19.00;99.90;;;;;;4994954;28;20076;-82
2023/08/01 07:55:42;;;;;;;14.35;6.78;;;19.10;99.90;;;;;;4995753;28;20021;-81
2023/08/01 07:58:07;;;;;;;14.30;5.93;;;19.10;99.90;;;;;;4999998;28;20113;-81
2023/08/01 08:00:35;;;;;;;16.02;5.68;;;18.90;99.90;;;;;;4998654;28;20065;-81
2023/08/01 08:03:01;;;;;;;15.95;5.60;;;18.80;99.90;;;;;;4994954;28;20074;-82
2023/08/01 08:05:26;;;;;;;10.95;6.13;;;18.90;99.90;;;;;;5000103;28;20053;-81
2023/08/01 08:07:52;;;;;;;13.02;6.00;;;18.90;99.90;;;;;;4997433;28;20397;-81
2023/08/01 08:10:18;;;;;;;14.02;6.15;;;19.00;99.90;;;;;;4998527;28;20080;-81
2023/08/01 08:12:45;;;;;;;9.85;5.28;;;19.00;99.90;;;;;;5002205;28;20038;-89
2023/08/01 08:15:13;;;;;;;10.38;6.55;;;19.00;99.90;;;;;;5000923;28;20026;-91
2023/08/01 08:17:38;;;;;;;11.95;5.15;;;19.00;99.90;;;;;;5004502;28;20381;-89
2023/08/01 08:20:06;;;;;;;10.73;5.85;;;19.10;99.90;;;;;;5007319;28;20034;-88
2023/08/01 08:22:36;;;;;;;16.58;6.22;;;19.20;99.90;;;;;;5007201;28;20025;-86
2023/08/01 08:25:01;;;;;;;14.23;5.95;;;19.20;99.90;;;;;;5004155;28;20134;-85
2023/08/01 08:27:27;;;;;;;14.68;5.28;;;19.40;99.90;;;;;;5009564;28;20112;-86
2023/08/01 08:29:53;;;;;;;401.40;183.27;;;19.40;99.90;;;;;;5002259;28;20390;-84
2023/08/01 08:32:19;;;;;;;14.18;5.85;;;19.50;99.90;;;;;;4999845;28;20474;-84
2023/08/01 08:34:46;;;;;;;9.93;5.10;;;19.50;99.90;;;;;;5004079;28;20500;-83
2023/08/01 08:37:12;;;;;;;9.40;5.10;;;19.70;99.90;;;;;;5001875;28;20025;-86
2023/08/01 08:39:37;;;;;;;12.95;5.13;;;19.70;99.90;;;;;;5000812;28;20022;-84
2023/08/01 08:42:05;;;;;;;8.95;5.07;;;19.70;99.90;;;;;;5003966;28;20044;-92
2023/08/01 08:44:34;;;;;;;12.20;4.72;;;19.70;99.90;;;;;;5009713;28;20053;-83
2023/08/01 08:47:05;;;;;;;15.00;5.03;;;19.80;99.90;;;;;;5003553;28;20041;-84
2023/08/01 08:49:32;;;;;;;5.15;3.47;;;20.00;99.90;;;;;;5001314;28;20180;-86
2023/08/01 08:51:58;;;;;;;7.35;3.95;;;20.00;99.90;;;;;;5001479;28;20025;-85
2023/08/01 08:54:26;;;;;;;6.32;3.67;;;20.20;99.90;;;;;;5001473;28;20125;-84
2023/08/01 08:56:52;;;;;;;7.10;3.90;;;20.30;99.90;;;;;;4997456;28;20026;-87
2023/08/01 08:59:20;;;;;;;9.60;3.50;;;20.30;99.80;;;;;;5001330;28;20497;-82
2023/08/01 09:01:46;;;;;;;13.35;3.83;;;20.50;99.90;;;;;;5001006;28;20033;-82
2023/08/01 09:04:11;;;;;;;71.80;29.30;;;20.40;99.80;;;;;;4998064;28;20034;-84
2023/08/01 09:06:49;;;;;;;10.63;3.90;;;20.40;99.90;;;;;;5000428;28;20482;-81
2023/08/01 09:09:15;;;;;;;10.10;3.90;;;19.90;99.90;;;;;;4998424;28;20049;-81
2023/08/01 09:11:46;;;;;;;10.95;3.20;;;19.30;99.90;;;;;;5002077;28;20030;-80
2023/08/01 09:14:15;;;;;;;8.48;4.07;;;19.00;99.90;;;;;;5004071;28;20033;-82
2023/08/01 09:16:42;;;;;;;8.45;4.07;;;18.80;99.90;;;;;;5010794;28;20022;-80
2023/08/01 09:19:12;;;;;;;8.45;3.90;;;18.80;99.90;;;;;;5008872;28;20025;-81
2023/08/01 09:21:39;;;;;;;9.65;4.70;;;18.90;99.90;;;;;;4999985;28;20096;-82
2023/08/01 09:24:12;;;;;;;10.30;4.13;;;19.10;99.90;;;;;;5001970;28;20025;-81
2023/08/01 09:26:38;;;;;;;10.45;4.97;;;18.90;99.90;;;;;;4998978;28;20026;-82
2023/08/01 09:29:05;;;;;;;8.60;4.40;;;19.00;99.90;;;;;;4996337;28;20125;-79
2023/08/01 09:31:33;;;;;;;12.10;4.50;;;19.10;99.90;;;;;;4996469;28;20019;-81
2023/08/01 09:33:59;;;;;;;10.10;4.10;;;19.10;99.90;;;;;;5001879;28;20014;-81
2023/08/01 09:36:25;;;;;;;6.38;3.85;;;19.10;99.90;;;;;;4998162;28;20101;-89
2023/08/01 09:38:58;;;;;;;16.75;4.20;;;19.10;99.90;;;;;;4999192;28;20142;-83
2023/08/01 09:41:24;;;;;;;10.63;3.60;;;19.50;99.90;;;;;;4999860;28;20052;-86
2023/08/01 09:43:50;;;;;;;8.13;3.78;;;19.70;99.90;;;;;;5000776;28;20105;-84
2023/08/01 09:46:16;;;;;;;7.03;4.63;;;20.20;99.90;;;;;;5001685;28;20109;-82
2023/08/01 09:48:41;;;;;;;9.68;4.20;;;20.60;99.90;;;;;;4994614;28;20049;-84
2023/08/01 09:51:08;;;;;;;8.80;3.70;;;20.70;99.90;;;;;;4996816;28;20034;-82
2023/08/01 09:53:35;;;;;;;12.18;4.18;;;20.60;99.90;;;;;;4996053;28;20026;-83
2023/08/01 09:56:04;;;;;;;8.70;3.92;;;20.80;99.90;;;;;;4989304;28;20790;-80
2023/08/01 09:58:36;;;;;;;6.10;2.88;;;21.00;99.90;;;;;;4988083;28;20072;-81
2023/08/01 10:01:01;;;;;;;13.93;6.57;;;21.10;99.90;;;;;;4994051;28;20042;-83
2023/08/01 10:03:29;;;;;;;95.40;39.00;;;21.50;98.90;;;;;;5000922;28;21086;-84
2023/08/01 10:05:56;;;;;;;5.85;3.20;;;22.10;98.70;;;;;;4994961;28;20033;-83
2023/08/01 10:08:22;;;;;;;6.50;3.15;;;21.50;97.60;;;;;;4996247;28;20022;-82
2023/08/01 10:10:49;;;;;;;4.93;2.42;;;21.00;98.20;;;;;;4999685;28;20050;-80
2023/08/01 10:13:28;;;;;;;5.65;2.60;;;20.80;98.80;;;;;;4993055;28;20030;-84
2023/08/01 10:15:54;;;;;;;4.07;1.77;;;20.50;99.10;;;;;;4999524;28;20021;-85
2023/08/01 10:18:21;;;;;;;3.88;2.17;;;20.40;99.20;;;;;;4998094;28;20021;-76
2023/08/01 10:20:47;;;;;;;4.10;1.65;;;20.60;99.30;;;;;;4993749;28;20558;-82
2023/08/01 10:23:13;;;;;;;2.95;1.85;;;20.50;99.10;;;;;;4999518;28;20030;-77
2023/08/01 10:25:40;;;;;;;5.07;1.88;;;20.60;99.20;;;;;;4995968;28;20621;-75
2023/08/01 10:28:06;;;;;;;3.83;1.75;;;20.40;99.00;;;;;;4998212;28;20132;-75
2023/08/01 10:30:32;;;;;;;4.78;1.70;;;20.60;98.70;;;;;;5000381;28;20030;-76
2023/08/01 10:33:00;;;;;;;3.75;2.15;;;21.00;98.00;;;;;;4994553;28;20036;-77
2023/08/01 10:35:32;;;;;;;10.70;2.20;;;21.70;98.10;;;;;;4996588;28;20120;-76
2023/08/01 10:38:05;;;;;;;8.10;2.00;;;22.10;96.40;;;;;;5002286;28;20390;-77
2023/08/01 10:40:34;;;;;;;;;;;22.50;96.50;;;;;;5003888;28;20741;-76
2023/08/01 10:43:00;;;;;;;8.00;2.70;;;22.60;95.40;;;;;;5000185;28;19979;-85
2023/08/01 10:45:28;;;;;;;356.95;174.80;;;22.60;95.90;;;;;;5004821;28;20419;-81
2023/08/01 10:47:54;;;;;;;6.20;2.58;;;22.60;95.60;;;;;;4999721;28;20113;-81
2023/08/01 10:50:19;;;;;;;5.38;2.30;;;22.70;95.00;;;;;;4999343;28;20833;-85
2023/08/01 10:52:46;;;;;;;7.68;2.42;;;22.50;94.40;;;;;;4999923;28;20026;-83
2023/08/01 10:55:12;;;;;;;3.67;2.05;;;22.20;95.00;;;;;;4998773;28;20363;-80
2023/08/01 10:57:48;;;;;;;5.35;1.83;;;21.90;95.00;;;;;;5001779;28;20025;-85
2023/08/01 11:00:17;;;;;;;7.25;2.38;;;21.90;95.20;;;;;;4995480;28;20036;-81
2023/08/01 11:02:51;;;;;;;7.93;2.50;;;21.70;94.60;;;;;;4997680;28;20080;-82
2023/08/01 11:05:18;;;;;;;6.43;1.70;;;21.40;95.80;;;;;;4998970;28;20053;-80
2023/08/01 11:07:54;;;;;;;7.13;2.38;;;21.50;95.20;;;;;;4995965;28;20059;-82
2023/08/01 11:10:20;;;;;;;11.15;2.72;;;21.60;95.50;;;;;;4995734;28;20413;-80
2023/08/01 11:12:46;;;;;;;7.65;2.30;;;21.70;95.60;;;;;;4997601;28;20027;-80
2023/08/01 11:15:14;;;;;;;3.17;2.05;;;21.80;95.80;;;;;;4994183;28;20525;-81
2023/08/01 11:17:48;;;;;;;6.97;2.40;;;21.50;95.80;;;;;;4996637;28;20510;-80
2023/08/01 11:20:14;;;;;;;6.22;2.45;;;21.70;96.00;;;;;;5003961;28;20042;-81
2023/08/01 11:22:58;;;;;;;4.32;2.33;;;22.00;94.80;;;;;;5015788;28;20031;-83
2023/08/01 11:25:38;;;;;;;7.22;2.20;;;22.20;95.60;;;;;;4996015;28;20023;-82
2023/08/01 11:28:15;;;;;;;6.13;2.25;;;22.60;95.00;;;;;;4996670;28;20041;-83
2023/08/01 11:30:41;;;;;;;5.38;2.08;;;22.50;93.60;;;;;;4992667;28;20437;-82
2023/08/01 11:33:20;;;;;;;7.28;2.30;;;22.60;93.60;;;;;;4993700;28;20030;-82
2023/08/01 11:35:49;;;;;;;4.82;2.25;;;22.80;93.00;;;;;;4997085;28;20018;-82
2023/08/01 11:38:16;;;;;;;6.30;1.95;;;23.10;93.00;;;;;;5011046;28;20113;-83
2023/08/01 11:40:42;;;;;;;5.43;2.25;;;23.20;93.10;;;;;;4994983;28;20472;-83
2023/08/01 11:43:10;;;;;;;9.07;3.17;;;22.90;92.80;;;;;;4997110;28;20562;-81
2023/08/01 11:45:35;;;;;;;6.15;2.42;;;22.50;94.00;;;;;;5002221;28;20207;-83
2023/08/01 11:48:01;;;;;;;6.22;2.95;;;22.30;94.50;;;;;;4997738;28;20512;-82
2023/08/01 11:50:27;;;;;;;5.78;2.05;;;22.20;94.30;;;;;;5003333;28;20091;-83
2023/08/01 11:52:53;;;;;;;8.63;2.00;;;22.40;92.80;;;;;;5000626;28;20017;-80
2023/08/01 11:55:22;;;;;;;4.82;2.10;;;22.90;94.30;;;;;;4998397;28;20030;-84
2023/08/01 11:57:55;;;;;;;4.63;2.00;;;23.10;92.50;;;;;;5003718;28;20267;-83
2023/08/01 12:00:23;;;;;;;;;;;23.00;92.50;;;;;;5000778;28;20038;-83
2023/08/01 12:02:49;;;;;;;259.42;116.65;;;22.80;93.20;;;;;;5007701;28;20450;-82
2023/08/01 12:05:22;;;;;;;5.82;1.90;;;22.70;93.40;;;;;;4999850;28;20104;-82
2023/08/01 12:07:48;;;;;;;12.50;2.20;;;22.60;93.60;;;;;;5001746;28;20022;-83
2023/08/01 12:10:13;;;;;;;6.70;1.88;;;22.60;94.30;;;;;;5002365;28;20038;-83
2023/08/01 12:12:48;;;;;;;8.35;2.03;;;22.80;94.50;;;;;;5003181;28;20383;-82
2023/08/01 12:15:15;;;;;;;8.13;2.70;;;22.80;95.80;;;;;;5000680;28;20425;-82
2023/08/01 12:17:41;;;;;;;7.60;2.40;;;22.80;94.40;;;;;;4997048;28;20141;-82
2023/08/01 12:20:07;;;;;;;6.45;2.22;;;23.10;94.60;;;;;;4997639;28;20479;-83
2023/08/01 12:22:33;;;;;;;7.97;2.38;;;22.90;93.10;;;;;;5005975;28;20022;-83
2023/08/01 12:24:58;;;;;;;8.52;2.65;;;22.80;92.80;;;;;;5002334;28;20026;-83
2023/08/01 12:27:26;;;;;;;10.23;2.80;;;23.00;93.20;;;;;;5001164;28;20080;-82
2023/08/01 12:29:52;;;;;;;5.65;2.40;;;23.20;92.10;;;;;;5003103;28;20030;-83
2023/08/01 12:32:17;;;;;;;8.07;2.30;;;23.20;91.30;;;;;;4999335;28;20026;-82
2023/08/01 12:34:43;;;;;;;17.63;2.92;;;23.40;91.70;;;;;;5002257;28;20029;-92
2023/08/01 12:37:11;;;;;;;6.63;2.00;;;23.30;90.60;;;;;;5011020;28;20508;-83
2023/08/01 12:39:37;;;;;;;5.80;2.10;;;23.50;91.70;;;;;;5010994;28;20577;-91